Time;durP1;ratioP1;P1;durP2;ratioP2;P2;SDS_P1;SDS_P2;PMS_P1;PMS_P2;Temp;Humidity;BMP_temperature;BMP_pressure;BME280_temperature;BME280_humidity;BME280_pressure;Samples;Min_cycle;Max_cycle;Signal;HPM_P1;HPM_P2
2022/07/31 00:00:59;;;;;;;;;;;;;;;29.32;47.66;98688.00;2082670;28;19943;-51
2022/07/31 00:02:00;;;;;;;;;;;;;;;29.28;47.89;98697.00;2081986;28;19937;-52
2022/07/31 00:03:01;;;;;;;;;;;;;;;29.30;47.57;98690.16;2082278;28;19932;-51
2022/07/31 00:04:02;;;;;;;;;;;;;;;29.22;48.01;98693.44;2081758;28;20008;-51
2022/07/31 00:05:03;;;;;;;;;;;;;;;29.25;47.67;98690.16;2083077;28;19929;-52
2022/07/31 00:06:06;;;;;;;;;;;;;;;29.18;47.91;98693.16;2081628;28;19929;-51
2022/07/31 00:07:07;;;;;;;;;;;;;;;29.15;48.02;98690.16;2082230;28;19925;-52
2022/07/31 00:08:08;;;;;;;;;;;;;;;29.07;48.07;98688.78;2082434;28;19928;-52
2022/07/31 00:09:09;;;;;;;;;;;;;;;29.06;48.19;98692.63;2081193;28;19940;-48
2022/07/31 00:10:10;;;;;;;;;;;;;;;29.08;48.02;98692.34;2082278;28;19933;-53
2022/07/31 00:11:11;;;;;;;;;;;;;;;29.23;47.72;98689.63;2081362;28;19928;-50
2022/07/31 00:12:12;;;;;;;;;;;;;;;29.33;47.59;98691.53;2080576;28;19929;-48
2022/07/31 00:13:13;;;;;;;;;;;;;;;29.30;47.64;98683.88;2081989;28;20743;-53
2022/07/31 00:14:15;;;;;;;;;;;;;;;29.39;47.22;98690.44;2080927;28;19971;-51
2022/07/31 00:15:16;;;;;;;;;;;;;;;29.48;47.13;98686.09;2081992;28;19936;-54
2022/07/31 00:16:17;;;;;;;;;;;;;;;29.52;46.53;98691.81;2078464;28;20556;-53
2022/07/31 00:17:18;;;;;;;;;;;;;;;29.48;46.88;98688.00;2074448;28;19937;-52
2022/07/31 00:18:20;;;;;;;;;;;;;;;29.54;46.46;98690.44;2076918;28;19928;-52
2022/07/31 00:19:21;;;;;;;;;;;;;;;29.51;46.70;98691.00;2074160;28;19976;-50
2022/07/31 00:20:22;;;;;;;;;;;;;;;29.40;47.08;98686.63;2081373;28;19935;-50
2022/07/31 00:21:24;;;;;;;;;;;;;;;29.37;46.91;98690.72;2081266;28;19949;-52
2022/07/31 00:22:26;;;;;;;;;;;;;;;29.37;46.87;98693.47;2076810;28;19928;-51
2022/07/31 00:23:26;;;;;;;;;;;;;;;29.29;47.29;98690.47;2081616;28;20453;-53
2022/07/31 00:24:28;;;;;;;;;;;;;;;29.25;47.35;98684.69;2082532;28;19925;-53
2022/07/31 00:25:29;;;;;;;;;;;;;;;29.29;47.20;98688.53;2085870;28;20394;-54
2022/07/31 00:26:31;;;;;;;;;;;;;;;29.20;47.49;98683.88;2082846;28;19967;-51
2022/07/31 00:27:32;;;;;;;;;;;;;;;29.22;47.41;98689.91;2081476;28;19928;-52
2022/07/31 00:28:33;;;;;;;;;;;;;;;29.14;47.62;98686.63;2082401;28;19980;-53
2022/07/31 00:29:34;;;;;;;;;;;;;;;29.12;47.79;98691.53;2080607;28;20381;-51
2022/07/31 00:30:35;;;;;;;;;;;;;;;29.04;47.80;98692.06;2079211;28;20012;-47
2022/07/31 00:31:36;;;;;;;;;;;;;;;29.08;48.09;98682.22;2076076;28;20358;-52
2022/07/31 00:32:37;;;;;;;;;;;;;;;29.08;47.85;98675.94;2082186;28;19925;-50
2022/07/31 00:33:38;;;;;;;;;;;;;;;29.09;47.96;98683.06;2083134;28;19936;-52
2022/07/31 00:34:40;;;;;;;;;;;;;;;29.08;48.18;98682.22;2083159;28;19931;-53
2022/07/31 00:35:41;;;;;;;;;;;;;;;29.13;48.18;98686.88;2082936;28;19929;-52
2022/07/31 00:36:44;;;;;;;;;;;;;;;29.16;48.09;98684.44;2083573;28;19935;-50
2022/07/31 00:37:45;;;;;;;;;;;;;;;29.21;47.85;98691.00;2082051;28;19932;-53
2022/07/31 00:38:46;;;;;;;;;;;;;;;29.23;47.92;98686.91;2082449;28;19924;-50
2022/07/31 00:39:47;;;;;;;;;;;;;;;29.29;47.86;98682.25;2083587;28;19929;-50
2022/07/31 00:40:49;;;;;;;;;;;;;;;29.31;47.75;98688.25;2081104;28;20453;-51
2022/07/31 00:41:49;;;;;;;;;;;;;;;29.35;47.78;98689.34;2081733;28;19929;-49
2022/07/31 00:42:51;;;;;;;;;;;;;;;29.34;47.88;98685.00;2081529;28;20028;-53
2022/07/31 00:43:51;;;;;;;;;;;;;;;29.34;47.88;98680.34;2080575;28;19932;-54
2022/07/31 00:44:53;;;;;;;;;;;;;;;29.36;48.02;98678.16;2081818;28;19963;-53
2022/07/31 00:45:56;;;;;;;;;;;;;;;29.38;47.97;98675.97;2080537;28;19940;-53
2022/07/31 00:46:58;;;;;;;;;;;;;;;29.40;48.11;98686.63;2080591;28;20536;-51
2022/07/31 00:48:00;;;;;;;;;;;;;;;29.37;48.00;98679.81;2083974;28;19932;-52
2022/07/31 00:49:01;;;;;;;;;;;;;;;29.24;48.53;98685.00;2081927;28;19937;-54
2022/07/31 00:50:03;;;;;;;;;;;;;;;29.16;48.88;98684.44;2081556;28;19925;-53
2022/07/31 00:51:04;;;;;;;;;;;;;;;29.12;49.00;98677.88;2082639;28;20039;-50
2022/07/31 00:52:06;;;;;;;;;;;;;;;29.01;49.41;98678.13;2080910;28;19935;-51
2022/07/31 00:53:08;;;;;;;;;;;;;;;28.85;49.76;98680.00;2082654;28;19925;-51
2022/07/31 00:54:09;;;;;;;;;;;;;;;28.83;49.85;98676.72;2082613;28;19932;-48
2022/07/31 00:55:10;;;;;;;;;;;;;;;28.89;49.60;98679.19;2083068;28;19940;-52
2022/07/31 00:56:11;;;;;;;;;;;;;;;28.81;49.86;98682.44;2083477;28;19940;-50
2022/07/31 00:57:14;;;;;;;;;;;;;;;28.83;49.59;98685.72;2082577;28;19935;-53
2022/07/31 00:58:14;;;;;;;;;;;;;;;28.93;49.33;98682.19;2081035;28;19928;-51
2022/07/31 00:59:16;;;;;;;;;;;;;;;29.04;49.20;98681.16;2081601;28;20012;-52
2022/07/31 01:00:16;;;;;;;;;;;;;;;29.13;49.03;98674.03;2082787;28;19924;-52
2022/07/31 01:01:18;;;;;;;;;;;;;;;29.14;49.07;98677.59;2082418;28;19925;-52
2022/07/31 01:02:18;;;;;;;;;;;;;;;29.15;48.87;98676.53;2082988;28;19928;-49
2022/07/31 01:03:20;;;;;;;;;;;;;;;29.15;49.28;98684.72;2082893;28;20621;-48
2022/07/31 01:04:21;;;;;;;;;;;;;;;29.16;49.10;98678.16;2082496;28;19936;-53
2022/07/31 01:05:22;;;;;;;;;;;;;;;29.15;49.12;98674.59;2083382;28;19935;-50
2022/07/31 01:06:23;;;;;;;;;;;;;;;29.14;49.24;98681.16;2081124;28;20557;-52
2022/07/31 01:07:26;;;;;;;;;;;;;;;29.17;49.13;98679.81;2081363;28;20019;-52
2022/07/31 01:08:26;;;;;;;;;;;;;;;29.22;49.01;98678.97;2082732;28;19944;-52
2022/07/31 01:09:28;;;;;;;;;;;;;;;29.23;48.97;98680.63;2081847;28;20680;-50
2022/07/31 01:10:35;;;;;;;;;;;;;;;29.25;48.96;98683.88;2083625;28;19936;-53
2022/07/31 01:11:38;;;;;;;;;;;;;;;29.23;49.23;98683.34;2082426;28;19978;-51
2022/07/31 01:12:44;;;;;;;;;;;;;;;29.24;49.15;98682.25;2082024;28;19986;-53
2022/07/31 01:13:49;;;;;;;;;;;;;;;29.22;49.08;98678.97;2080865;28;19933;-53
2022/07/31 01:14:51;;;;;;;;;;;;;;;29.21;49.32;98682.81;2081914;28;19928;-53
2022/07/31 01:15:53;;;;;;;;;;;;;;;29.21;49.54;98689.09;2080571;28;19932;-53
2022/07/31 01:16:55;;;;;;;;;;;;;;;29.20;49.56;98689.34;2077368;28;19933;-51
2022/07/31 01:17:57;;;;;;;;;;;;;;;29.18;49.21;98693.16;2080166;28;20583;-49
2022/07/31 01:18:58;;;;;;;;;;;;;;;29.20;49.51;98697.53;2080473;28;19936;-52
2022/07/31 01:20:00;;;;;;;;;;;;;;;29.17;49.55;98686.09;2082040;28;19935;-48
2022/07/31 01:21:03;;;;;;;;;;;;;;;29.20;49.58;98689.34;2080469;28;19936;-49
2022/07/31 01:22:08;;;;;;;;;;;;;;;29.16;49.72;98689.06;2082264;28;19928;-52
2022/07/31 01:23:26;;;;;;;;;;;;;;;29.15;49.73;98690.16;2080116;28;19928;-53
2022/07/31 01:24:39;;;;;;;;;;;;;;;29.13;49.89;98678.69;2055886;28;19941;-54
2022/07/31 01:25:46;;;;;;;;;;;;;;;29.15;49.73;98681.97;2079068;28;19936;-51
2022/07/31 01:26:49;;;;;;;;;;;;;;;29.12;49.73;98677.06;2081147;28;19976;-50
2022/07/31 01:27:57;;;;;;;;;;;;;;;29.14;49.88;98680.31;2081156;28;19932;-52
2022/07/31 01:29:13;;;;;;;;;;;;;;;29.16;49.74;98680.88;2079861;28;19933;-51
2022/07/31 01:30:14;;;;;;;;;;;;;;;29.13;50.08;98681.44;2079136;28;20816;-51
2022/07/31 01:31:19;;;;;;;;;;;;;;;29.11;50.12;98672.69;2082565;28;19924;-51
2022/07/31 01:32:24;;;;;;;;;;;;;;;29.10;50.14;98682.78;2078562;28;19932;-50
2022/07/31 01:33:30;;;;;;;;;;;;;;;29.05;50.28;98676.50;2071502;28;19929;-54
2022/07/31 01:34:33;;;;;;;;;;;;;;;29.07;50.27;98683.34;2072863;28;19929;-52
2022/07/31 01:35:39;;;;;;;;;;;;;;;29.08;50.50;98679.50;2081348;28;20013;-51
2022/07/31 01:36:43;;;;;;;;;;;;;;;29.08;50.35;98681.41;2076797;28;19932;-52
2022/07/31 01:37:47;;;;;;;;;;;;;;;29.11;50.39;98675.41;2077651;28;19964;-49
2022/07/31 01:38:50;;;;;;;;;;;;;;;29.16;50.34;98675.41;2078714;28;19951;-52
2022/07/31 01:39:54;;;;;;;;;;;;;;;29.11;50.25;98681.72;2079432;28;19972;-54
2022/07/31 01:40:56;;;;;;;;;;;;;;;29.13;50.36;98676.78;2079185;28;20299;-52
2022/07/31 01:41:59;;;;;;;;;;;;;;;29.16;50.58;98678.16;2080809;28;19928;-51
2022/07/31 01:43:01;;;;;;;;;;;;;;;29.11;50.73;98678.13;2079759;28;20546;-52
2022/07/31 01:44:04;;;;;;;;;;;;;;;29.09;50.71;98677.63;2079541;28;19979;-53
2022/07/31 01:45:09;;;;;;;;;;;;;;;29.09;50.90;98675.69;2080384;28;19994;-52
2022/07/31 01:46:14;;;;;;;;;;;;;;;29.06;51.00;98678.13;2081771;28;19939;-53
2022/07/31 01:47:18;;;;;;;;;;;;;;;28.95;51.51;98678.09;2080752;28;19925;-52
2022/07/31 01:48:20;;;;;;;;;;;;;;;28.95;51.55;98682.75;2081983;28;19935;-53
2022/07/31 01:49:21;;;;;;;;;;;;;;;28.93;51.45;98683.00;2080277;28;19929;-53
2022/07/31 01:50:23;;;;;;;;;;;;;;;29.00;51.29;98679.19;2079128;28;20525;-48
2022/07/31 01:51:24;;;;;;;;;;;;;;;29.02;51.05;98685.22;2080747;28;19932;-50
2022/07/31 01:52:27;;;;;;;;;;;;;;;29.05;51.10;98688.25;2079772;28;20973;-50
2022/07/31 01:53:30;;;;;;;;;;;;;;;29.04;51.22;98683.88;2080130;28;20942;-49
2022/07/31 01:54:32;;;;;;;;;;;;;;;29.03;51.38;98687.72;2082677;28;19963;-52
2022/07/31 01:55:33;;;;;;;;;;;;;;;29.03;51.38;98687.72;2081454;28;19925;-52
2022/07/31 01:56:36;;;;;;;;;;;;;;;29.04;51.27;98686.59;2082764;28;19994;-48
2022/07/31 01:57:38;;;;;;;;;;;;;;;29.05;51.34;98688.25;2081370;28;19932;-50
2022/07/31 01:58:40;;;;;;;;;;;;;;;29.03;51.44;98690.44;2082725;28;20437;-53
2022/07/31 01:59:43;;;;;;;;;;;;;;;29.06;51.37;98678.97;2078866;28;19983;-53
2022/07/31 02:00:45;;;;;;;;;;;;;;;29.05;51.42;98687.41;2081047;28;19933;-49
2022/07/31 02:01:48;;;;;;;;;;;;;;;29.05;51.32;98685.50;2082824;28;20052;-53
2022/07/31 02:02:50;;;;;;;;;;;;;;;29.05;51.44;98682.78;2080098;28;19932;-52
2022/07/31 02:03:52;;;;;;;;;;;;;;;29.06;51.40;98689.06;2080600;28;19982;-53
2022/07/31 02:04:54;;;;;;;;;;;;;;;29.08;51.48;98681.41;2081481;28;19982;-51
2022/07/31 02:05:56;;;;;;;;;;;;;;;29.11;51.40;98692.63;2081046;28;19937;-50
2022/07/31 02:06:57;;;;;;;;;;;;;;;29.10;51.42;98687.44;2081366;28;19936;-53
2022/07/31 02:07:59;;;;;;;;;;;;;;;29.13;51.27;98690.44;2080149;28;19929;-54
2022/07/31 02:09:00;;;;;;;;;;;;;;;29.09;51.74;98689.34;2079567;28;19929;-53
2022/07/31 02:10:02;;;;;;;;;;;;;;;29.11;51.42;98684.44;2081744;28;19931;-53
2022/07/31 02:11:02;;;;;;;;;;;;;;;29.12;51.64;98688.00;2082396;28;19954;-52
2022/07/31 02:12:04;;;;;;;;;;;;;;;29.12;51.60;98691.53;2082452;28;19935;-53
2022/07/31 02:13:05;;;;;;;;;;;;;;;29.09;51.80;98688.53;2083624;28;19932;-52
2022/07/31 02:14:08;;;;;;;;;;;;;;;29.10;51.93;98690.16;2082082;28;19935;-53
2022/07/31 02:15:10;;;;;;;;;;;;;;;29.10;51.75;98688.25;2078426;28;19932;-53
2022/07/31 02:16:14;;;;;;;;;;;;;;;29.08;51.88;98686.88;2081606;28;19936;-50
2022/07/31 02:17:15;;;;;;;;;;;;;;;29.10;51.99;98687.44;2080788;28;19929;-48
2022/07/31 02:18:18;;;;;;;;;;;;;;;29.08;52.06;98686.88;2077264;28;20056;-51
2022/07/31 02:19:20;;;;;;;;;;;;;;;29.08;52.01;98687.69;2079347;28;19931;-52
2022/07/31 02:20:22;;;;;;;;;;;;;;;29.08;52.13;98689.59;2080597;28;19940;-51
2022/07/31 02:21:23;;;;;;;;;;;;;;;29.05;52.11;98692.88;2080083;28;19924;-53
2022/07/31 02:22:25;;;;;;;;;;;;;;;29.03;52.18;98684.97;2079861;28;19939;-53
2022/07/31 02:23:25;;;;;;;;;;;;;;;29.05;52.38;98687.41;2079701;28;19933;-51
2022/07/31 02:24:27;;;;;;;;;;;;;;;29.03;52.27;98684.97;2081780;28;20647;-49
2022/07/31 02:25:28;;;;;;;;;;;;;;;29.05;52.40;98687.41;2078691;28;19928;-53
2022/07/31 02:26:31;;;;;;;;;;;;;;;29.07;52.37;98685.25;2079568;28;20475;-53
2022/07/31 02:27:32;;;;;;;;;;;;;;;29.08;52.12;98682.22;2080663;28;19950;-53
2022/07/31 02:28:35;;;;;;;;;;;;;;;29.07;52.25;98680.59;2080778;28;19925;-51
2022/07/31 02:29:36;;;;;;;;;;;;;;;29.05;52.51;98682.78;2078999;28;20081;-51
2022/07/31 02:30:38;;;;;;;;;;;;;;;29.04;52.43;98681.16;2080939;28;20541;-52
2022/07/31 02:31:43;;;;;;;;;;;;;;;29.01;52.78;98680.84;2079226;28;19933;-52
2022/07/31 02:32:45;;;;;;;;;;;;;;;28.84;53.06;98687.38;2080254;28;19954;-51
2022/07/31 02:33:46;;;;;;;;;;;;;;;28.82;52.86;98686.81;2080411;28;19932;-52
2022/07/31 02:34:48;;;;;;;;;;;;;;;28.74;52.99;98682.69;2080918;28;19925;-50
2022/07/31 02:35:50;;;;;;;;;;;;;;;28.79;53.02;98681.91;2068136;28;19936;-50
2022/07/31 02:36:52;;;;;;;;;;;;;;;28.87;52.79;98677.81;2078473;28;20872;-51
2022/07/31 02:37:54;;;;;;;;;;;;;;;28.92;52.61;98675.09;2072680;28;19929;-53
2022/07/31 02:38:57;;;;;;;;;;;;;;;28.89;52.93;98683.81;2071050;28;19928;-50
2022/07/31 02:39:57;;;;;;;;;;;;;;;28.87;53.01;98686.00;2072116;28;20036;-52
2022/07/31 02:41:00;;;;;;;;;;;;;;;28.86;52.80;98684.34;2074718;28;19928;-50
2022/07/31 02:42:01;;;;;;;;;;;;;;;28.89;52.73;98679.19;2074311;28;20118;-52
2022/07/31 02:43:03;;;;;;;;;;;;;;;28.88;52.78;98677.53;2079552;28;23145;-52
2022/07/31 02:44:04;;;;;;;;;;;;;;;28.88;53.07;98674.81;2076540;28;19929;-47
2022/07/31 02:45:06;;;;;;;;;;;;;;;28.89;52.97;98678.34;2079652;28;20554;-52
2022/07/31 02:46:07;;;;;;;;;;;;;;;28.90;52.72;98677.28;2077001;28;20399;-53
2022/07/31 02:47:11;;;;;;;;;;;;;;;28.90;52.94;98678.09;2078467;28;19979;-52
2022/07/31 02:48:11;;;;;;;;;;;;;;;28.90;52.95;98680.00;2080013;28;19932;-52
2022/07/31 02:49:13;;;;;;;;;;;;;;;28.92;52.92;98680.56;2079933;28;19932;-50
2022/07/31 02:50:15;;;;;;;;;;;;;;;28.92;52.99;98677.84;2081927;28;20019;-51
2022/07/31 02:51:17;;;;;;;;;;;;;;;28.96;52.65;98684.38;2079637;28;19928;-49
2022/07/31 02:52:18;;;;;;;;;;;;;;;28.96;52.63;98684.38;2081919;28;19932;-54
2022/07/31 02:53:20;;;;;;;;;;;;;;;28.97;52.74;98680.53;2080180;28;19925;-52
2022/07/31 02:54:20;;;;;;;;;;;;;;;28.97;52.79;98683.28;2080718;28;19981;-49
2022/07/31 02:55:22;;;;;;;;;;;;;;;28.96;52.43;98685.19;2083368;28;19974;-52
2022/07/31 02:56:23;;;;;;;;;;;;;;;28.98;52.66;98682.22;2080197;28;19924;-52
2022/07/31 02:57:25;;;;;;;;;;;;;;;28.96;52.79;98684.38;2081429;28;19929;-49
2022/07/31 02:58:26;;;;;;;;;;;;;;;28.92;52.77;98678.66;2081151;28;20419;-52
2022/07/31 02:59:27;;;;;;;;;;;;;;;28.98;52.74;98682.22;2080666;28;19933;-50
2022/07/31 03:00:28;;;;;;;;;;;;;;;28.96;52.89;98682.47;2082247;28;19931;-53
2022/07/31 03:01:33;;;;;;;;;;;;;;;28.94;52.83;98681.09;2081760;28;19947;-53
2022/07/31 03:02:35;;;;;;;;;;;;;;;28.92;53.07;98675.09;2079382;28;19925;-50
2022/07/31 03:03:37;;;;;;;;;;;;;;;28.92;52.79;98680.56;2080545;28;20019;-52
2022/07/31 03:04:37;;;;;;;;;;;;;;;28.90;53.08;98682.75;2078391;28;19924;-50
2022/07/31 03:05:39;;;;;;;;;;;;;;;28.89;53.10;98687.38;2078660;28;19925;-52
2022/07/31 03:06:39;;;;;;;;;;;;;;;28.88;53.08;98683.00;2078751;28;19929;-49
2022/07/31 03:07:41;;;;;;;;;;;;;;;28.90;53.28;98680.81;2079526;28;19929;-51
2022/07/31 03:08:42;;;;;;;;;;;;;;;28.92;53.02;98686.03;2081679;28;19929;-51
2022/07/31 03:09:43;;;;;;;;;;;;;;;28.93;53.05;98684.94;2079798;28;20149;-50
2022/07/31 03:10:44;;;;;;;;;;;;;;;28.93;53.11;98679.47;2080220;28;19932;-51
2022/07/31 03:11:45;;;;;;;;;;;;;;;28.95;52.96;98683.56;2080301;28;20008;-49
2022/07/31 03:12:47;;;;;;;;;;;;;;;28.98;52.95;98689.59;2080559;28;19940;-52
2022/07/31 03:13:49;;;;;;;;;;;;;;;28.96;52.94;98690.66;2079344;28;19971;-53
2022/07/31 03:14:50;;;;;;;;;;;;;;;29.01;52.92;98691.78;2080380;28;19929;-51
2022/07/31 03:15:52;;;;;;;;;;;;;;;29.00;52.92;98690.09;2081862;28;20353;-52
2022/07/31 03:16:53;;;;;;;;;;;;;;;29.00;52.80;98687.38;2078422;28;19968;-52
2022/07/31 03:17:56;;;;;;;;;;;;;;;29.01;52.77;98686.31;2079697;28;19955;-52
2022/07/31 03:18:57;;;;;;;;;;;;;;;29.00;52.77;98690.09;2080461;28;19940;-51
2022/07/31 03:19:58;;;;;;;;;;;;;;;29.00;52.70;98688.19;2078446;28;19929;-48
2022/07/31 03:21:00;;;;;;;;;;;;;;;29.02;52.72;98687.94;2080970;28;19928;-53
2022/07/31 03:22:01;;;;;;;;;;;;;;;29.05;52.53;98681.97;2079100;28;19924;-50
2022/07/31 03:23:02;;;;;;;;;;;;;;;29.04;52.68;98680.34;2080637;28;20574;-52
2022/07/31 03:24:03;;;;;;;;;;;;;;;29.06;52.61;98686.31;2080201;28;19925;-49
2022/07/31 03:25:06;;;;;;;;;;;;;;;29.01;52.93;98684.38;2080351;28;19929;-52
2022/07/31 03:26:08;;;;;;;;;;;;;;;29.04;52.62;98689.34;2079089;28;19933;-51
2022/07/31 03:27:08;;;;;;;;;;;;;;;29.03;52.68;98679.53;2078414;28;19929;-53
2022/07/31 03:28:10;;;;;;;;;;;;;;;29.01;52.50;98687.13;2080346;28;19935;-50
2022/07/31 03:29:10;;;;;;;;;;;;;;;29.04;52.53;98678.41;2078545;28;20846;-52
2022/07/31 03:30:15;;;;;;;;;;;;;;;29.05;52.16;98685.50;2080111;28;19929;-51
2022/07/31 03:31:17;;;;;;;;;;;;;;;29.07;52.19;98690.72;2080206;28;19925;-50
2022/07/31 03:32:17;;;;;;;;;;;;;;;29.02;52.15;98682.47;2082272;28;20560;-52
2022/07/31 03:33:21;;;;;;;;;;;;;;;29.04;52.24;98683.06;2080326;28;19935;-53
2022/07/31 03:34:21;;;;;;;;;;;;;;;28.98;52.33;98681.41;2079239;28;19933;-49
2022/07/31 03:35:24;;;;;;;;;;;;;;;28.92;52.24;98681.38;2076690;28;19929;-51
2022/07/31 03:36:25;;;;;;;;;;;;;;;28.82;52.18;98677.81;2081593;28;20014;-53
2022/07/31 03:37:26;;;;;;;;;;;;;;;28.79;52.41;98681.06;2077654;28;19929;-54
2022/07/31 03:38:27;;;;;;;;;;;;;;;28.74;52.55;98682.69;2080869;28;19933;-53
2022/07/31 03:39:28;;;;;;;;;;;;;;;28.74;52.37;98679.97;2069008;28;20372;-52
2022/07/31 03:40:29;;;;;;;;;;;;;;;28.74;52.53;98676.41;2076811;28;20688;-48
2022/07/31 03:41:31;;;;;;;;;;;;;;;28.68;52.60;98681.03;2079917;28;19929;-51
2022/07/31 03:42:32;;;;;;;;;;;;;;;28.70;52.51;98680.78;2080543;28;19929;-49
2022/07/31 03:43:34;;;;;;;;;;;;;;;28.67;52.36;98684.88;2078578;28;20371;-53
2022/07/31 03:44:35;;;;;;;;;;;;;;;28.52;52.75;98684.81;2081278;28;19937;-51
2022/07/31 03:45:38;;;;;;;;;;;;;;;28.38;53.08;98684.47;2079294;28;19935;-51
2022/07/31 03:46:38;;;;;;;;;;;;;;;28.36;52.77;98677.63;2080607;28;19928;-52
2022/07/31 03:47:40;;;;;;;;;;;;;;;28.32;53.00;98682.00;2077933;28;20393;-48
2022/07/31 03:48:42;;;;;;;;;;;;;;;28.36;52.80;98681.19;2079001;28;19933;-50
2022/07/31 03:49:44;;;;;;;;;;;;;;;28.38;52.87;98680.91;2079659;28;20960;-51
2022/07/31 03:50:44;;;;;;;;;;;;;;;28.38;52.74;98684.47;2080061;28;20444;-51
2022/07/31 03:51:46;;;;;;;;;;;;;;;28.40;52.44;98673.28;2079617;28;19928;-50
2022/07/31 03:52:46;;;;;;;;;;;;;;;28.37;52.31;98676.56;2081056;28;19940;-53
2022/07/31 03:53:48;;;;;;;;;;;;;;;28.42;52.06;98684.75;2078812;28;19925;-51
2022/07/31 03:54:49;;;;;;;;;;;;;;;28.39;52.28;98677.09;2081553;28;19936;-52
2022/07/31 03:55:51;;;;;;;;;;;;;;;28.29;52.37;98675.16;2081391;28;20530;-53
2022/07/31 03:56:52;;;;;;;;;;;;;;;28.21;52.50;98679.22;2081577;28;19929;-50
2022/07/31 03:57:54;;;;;;;;;;;;;;;28.18;52.47;98678.94;2080345;28;19966;-54
2022/07/31 03:58:54;;;;;;;;;;;;;;;28.16;52.51;98681.91;2081786;28;19936;-50
2022/07/31 03:59:56;;;;;;;;;;;;;;;28.13;52.50;98681.63;2080851;28;19932;-52
2022/07/31 04:00:57;;;;;;;;;;;;;;;28.20;52.12;98684.94;2081588;28;20011;-52
2022/07/31 04:02:00;;;;;;;;;;;;;;;28.31;51.57;98689.34;2083852;28;19954;-52
2022/07/31 04:03:04;;;;;;;;;;;;;;;28.21;51.90;98679.22;2082590;28;19929;-51
2022/07/31 04:04:07;;;;;;;;;;;;;;;28.22;51.75;98685.47;2083813;28;19933;-53
2022/07/31 04:05:08;;;;;;;;;;;;;;;28.23;51.52;98677.03;2083221;28;19936;-51
2022/07/31 04:06:10;;;;;;;;;;;;;;;28.24;51.56;98681.41;2081039;28;19931;-52
2022/07/31 04:07:10;;;;;;;;;;;;;;;28.17;51.41;98677.28;2080685;28;19933;-53
2022/07/31 04:08:12;;;;;;;;;;;;;;;28.18;51.70;98679.75;2081382;28;19932;-49
2022/07/31 04:09:12;;;;;;;;;;;;;;;28.20;51.50;98682.22;2081243;28;19925;-50
2022/07/31 04:10:14;;;;;;;;;;;;;;;28.10;51.79;98682.97;2081114;28;19928;-50
2022/07/31 04:11:15;;;;;;;;;;;;;;;28.11;51.46;98679.19;2082623;28;19929;-51
2022/07/31 04:12:16;;;;;;;;;;;;;;;28.20;51.31;98688.47;2083834;28;19935;-48
2022/07/31 04:13:17;;;;;;;;;;;;;;;28.07;51.42;98683.50;2082829;28;19929;-47
2022/07/31 04:14:18;;;;;;;;;;;;;;;27.98;51.56;98679.66;2081660;28;20306;-48
2022/07/31 04:15:19;;;;;;;;;;;;;;;28.02;51.72;98684.28;2080313;28;19925;-46
2022/07/31 04:16:20;;;;;;;;;;;;;;;27.97;51.57;98684.28;2080584;28;19933;-48
2022/07/31 04:17:21;;;;;;;;;;;;;;;27.86;51.93;98685.31;2080228;28;20437;-47
2022/07/31 04:18:23;;;;;;;;;;;;;;;27.87;52.10;98680.69;2081700;28;19931;-46
2022/07/31 04:19:24;;;;;;;;;;;;;;;27.85;52.07;98681.75;2080337;28;19933;-47
2022/07/31 04:20:26;;;;;;;;;;;;;;;27.87;52.04;98683.41;2079351;28;19952;-48
2022/07/31 04:21:27;;;;;;;;;;;;;;;27.91;52.06;98685.31;2080051;28;20450;-50
2022/07/31 04:22:28;;;;;;;;;;;;;;;27.85;51.92;98684.47;2080632;28;20008;-50
2022/07/31 04:23:29;;;;;;;;;;;;;;;27.85;51.92;98681.75;2081161;28;19951;-47
2022/07/31 04:24:31;;;;;;;;;;;;;;;27.80;51.89;98683.63;2082984;28;20310;-50
2022/07/31 04:25:31;;;;;;;;;;;;;;;27.85;51.92;98680.94;2080576;28;19940;-46
2022/07/31 04:26:33;;;;;;;;;;;;;;;27.87;51.83;98684.22;2082230;28;19963;-49
2022/07/31 04:27:34;;;;;;;;;;;;;;;27.93;51.70;98687.78;2080352;28;19931;-47
2022/07/31 04:28:35;;;;;;;;;;;;;;;27.94;51.81;98683.97;2079477;28;19933;-48
2022/07/31 04:29:36;;;;;;;;;;;;;;;27.88;51.72;98679.59;2079727;28;19933;-47
2022/07/31 04:30:38;;;;;;;;;;;;;;;27.88;51.71;98680.41;2081606;28;20395;-48
2022/07/31 04:31:39;;;;;;;;;;;;;;;27.81;51.92;98682.56;2081576;28;20918;-47
2022/07/31 04:32:40;;;;;;;;;;;;;;;27.85;51.87;98679.00;2081960;28;19976;-48
2022/07/31 04:33:42;;;;;;;;;;;;;;;27.78;52.06;98681.13;2080475;28;20422;-51
2022/07/31 04:34:45;;;;;;;;;;;;;;;27.85;51.97;98689.09;2081610;28;20015;-47
2022/07/31 04:35:46;;;;;;;;;;;;;;;27.82;52.36;98687.72;2081114;28;19929;-48
2022/07/31 04:36:48;;;;;;;;;;;;;;;27.80;52.38;98686.34;2080692;28;20426;-48
2022/07/31 04:37:48;;;;;;;;;;;;;;;27.85;52.34;98686.38;2079095;28;19940;-47
2022/07/31 04:38:50;;;;;;;;;;;;;;;27.77;52.65;98679.47;2082098;28;20608;-48
2022/07/31 04:39:50;;;;;;;;;;;;;;;27.76;52.68;98677.03;2080317;28;20429;-46
2022/07/31 04:40:52;;;;;;;;;;;;;;;27.79;52.64;98681.94;2076112;28;19935;-47
2022/07/31 04:41:53;;;;;;;;;;;;;;;27.81;52.61;98685.28;2081148;28;19952;-49
2022/07/31 04:42:54;;;;;;;;;;;;;;;27.82;52.70;98682.28;2081914;28;19932;-48
2022/07/31 04:43:56;;;;;;;;;;;;;;;27.77;52.86;98670.50;2076702;28;19936;-48
2022/07/31 04:44:58;;;;;;;;;;;;;;;27.78;53.17;98681.13;2079842;28;20743;-47
2022/07/31 04:45:58;;;;;;;;;;;;;;;27.79;52.78;98677.34;2078814;28;19929;-47
2022/07/31 04:47:00;;;;;;;;;;;;;;;27.85;52.90;98689.91;2074963;28;19929;-46
2022/07/31 04:48:01;;;;;;;;;;;;;;;27.83;52.91;98683.94;2076335;28;19929;-48
2022/07/31 04:49:02;;;;;;;;;;;;;;;27.86;52.65;98685.31;2076969;28;20815;-48
2022/07/31 04:50:06;;;;;;;;;;;;;;;27.85;52.91;98687.19;2075075;28;20306;-50
2022/07/31 04:51:08;;;;;;;;;;;;;;;27.90;52.81;98685.59;2076976;28;19972;-49
2022/07/31 04:52:09;;;;;;;;;;;;;;;27.88;52.66;98690.47;2073269;28;19955;-48
2022/07/31 04:53:10;;;;;;;;;;;;;;;27.91;52.74;98690.78;2072396;28;19924;-47
2022/07/31 04:54:11;;;;;;;;;;;;;;;27.92;53.01;98689.72;2074549;28;19975;-51
2022/07/31 04:55:12;;;;;;;;;;;;;;;27.96;52.84;98685.34;2078754;28;19929;-50
2022/07/31 04:57:33;;;;;;;;;;;;;;;27.97;52.81;98692.47;2074499;28;20019;-51
2022/07/31 04:58:34;;;;;;;;;;;;;;;27.93;52.99;98687.78;2073059;28;19933;-48
2022/07/31 04:59:35;;;;;;;;;;;;;;;27.92;52.68;98686.97;2072090;28;20577;-47
2022/07/31 05:00:37;;;;;;;;;;;;;;;27.94;52.93;98692.16;2075499;28;20517;-48
2022/07/31 05:01:38;;;;;;;;;;;;;;;27.98;52.50;98690.56;2071787;28;20453;-49
2022/07/31 05:02:40;;;;;;;;;;;;;;;27.96;52.74;98687.25;2077561;28;19929;-51
2022/07/31 05:03:40;;;;;;;;;;;;;;;27.96;52.64;98692.72;2074000;28;19983;-50
2022/07/31 05:04:42;;;;;;;;;;;;;;;27.94;52.67;98694.88;2077477;28;19928;-49
2022/07/31 05:05:45;;;;;;;;;;;;;;;27.97;52.61;98686.16;2073637;28;19935;-48
2022/07/31 05:06:47;;;;;;;;;;;;;;;28.00;52.08;98694.66;2079571;28;19924;-49
2022/07/31 05:07:48;;;;;;;;;;;;;;;28.01;52.21;98690.84;2075817;28;19933;-51
2022/07/31 05:08:49;;;;;;;;;;;;;;;28.00;52.27;98691.09;2076675;28;20542;-50
2022/07/31 05:09:51;;;;;;;;;;;;;;;28.01;51.82;98692.75;2074039;28;20384;-53
2022/07/31 05:12:11;;;;;;;;;;;;;;;27.99;51.96;98686.72;2074536;28;19940;-49
2022/07/31 05:13:12;;;;;;;;;;;;;;;27.92;51.95;98692.44;2074173;28;19929;-51
2022/07/31 05:14:15;;;;;;;;;;;;;;;27.94;51.94;98698.41;2074454;28;20371;-51
2022/07/31 05:15:16;;;;;;;;;;;;;;;27.94;51.73;98692.97;2076556;28;19928;-51
2022/07/31 05:16:17;;;;;;;;;;;;;;;27.96;51.75;98692.72;2075050;28;19963;-50
2022/07/31 05:17:19;;;;;;;;;;;;;;;27.99;51.61;98693.00;2075373;28;19986;-47
2022/07/31 05:18:20;;;;;;;;;;;;;;;27.91;51.32;98688.03;2074799;28;20498;-51
2022/07/31 05:19:21;;;;;;;;;;;;;;;27.90;51.42;98688.31;2071068;28;19929;-50
2022/07/31 05:20:22;;;;;;;;;;;;;;;27.88;51.58;98685.84;2072405;28;19928;-50
2022/07/31 05:21:27;;;;;;;;;;;;;;;27.97;51.15;98691.63;2072640;28;19940;-49
2022/07/31 05:22:28;;;;;;;;;;;;;;;28.06;51.01;98692.78;2075190;28;20367;-48
2022/07/31 05:23:29;;;;;;;;;;;;;;;28.03;50.94;98694.13;2074962;28;19943;-50
2022/07/31 05:24:30;;;;;;;;;;;;;;;28.07;51.00;98691.69;2078767;28;19929;-49
2022/07/31 05:25:31;;;;;;;;;;;;;;;28.13;50.83;98693.34;2073908;28;19929;-52